createdAt,value
2022-08-28T00:00:45.348Z,4
2022-08-28T00:01:45.341Z,5
2022-08-28T00:02:45.429Z,4
2022-08-28T00:03:45.338Z,6
2022-08-28T00:04:45.428Z,4
2022-08-28T00:05:45.351Z,4
2022-08-28T00:06:45.359Z,4
2022-08-28T00:07:47.791Z,5
2022-08-28T00:08:45.345Z,5
2022-08-28T00:09:45.427Z,4
2022-08-28T00:10:45.343Z,4
2022-08-28T00:11:45.343Z,5
2022-08-28T00:12:45.364Z,5
2022-08-28T00:13:45.362Z,5
2022-08-28T00:14:45.339Z,5
2022-08-28T00:15:45.402Z,4
2022-08-28T00:16:45.413Z,5
2022-08-28T00:17:45.385Z,4
2022-08-28T00:18:51.921Z,6
2022-08-28T00:19:45.348Z,5
2022-08-28T00:20:45.353Z,5
2022-08-28T00:21:45.354Z,5
2022-08-28T00:22:45.352Z,5
2022-08-28T00:23:45.401Z,4
2022-08-28T00:24:45.376Z,4
2022-08-28T00:25:45.352Z,4
2022-08-28T00:26:45.350Z,4
2022-08-28T00:27:45.403Z,4
2022-08-28T00:28:45.437Z,4
2022-08-28T00:29:45.383Z,5
2022-08-28T00:30:45.361Z,6
2022-08-28T00:31:45.438Z,6
2022-08-28T00:32:45.382Z,5
2022-08-28T00:33:47.554Z,5
2022-08-28T00:34:45.342Z,5
2022-08-28T00:35:45.364Z,4
2022-08-28T00:36:45.360Z,3
2022-08-28T00:37:45.345Z,4
2022-08-28T00:38:45.342Z,4
2022-08-28T00:39:45.357Z,4
2022-08-28T00:40:45.405Z,4
2022-08-28T00:41:45.346Z,4
2022-08-28T00:42:45.384Z,4
2022-08-28T00:43:45.381Z,4
2022-08-28T00:44:45.365Z,4
2022-08-28T00:45:45.356Z,4
2022-08-28T00:46:45.476Z,4
2022-08-28T00:47:45.371Z,4
2022-08-28T00:48:45.351Z,5
2022-08-28T00:49:45.373Z,4
2022-08-28T00:50:45.372Z,4
2022-08-28T00:51:45.363Z,4
2022-08-28T00:52:45.356Z,4
2022-08-28T00:53:45.356Z,5
2022-08-28T00:54:58.694Z,7
2022-08-28T00:55:45.357Z,4
2022-08-28T00:56:45.350Z,5
2022-08-28T00:57:45.383Z,6
2022-08-28T00:59:45.353Z,4
2022-08-28T01:00:45.371Z,5
2022-08-28T01:01:45.464Z,5
2022-08-28T01:02:45.454Z,3
2022-08-28T01:03:45.350Z,5
2022-08-28T01:04:45.355Z,4
2022-08-28T01:05:45.366Z,4
2022-08-28T01:06:45.382Z,6
2022-08-28T01:07:45.362Z,4
2022-08-28T01:08:45.363Z,4
2022-08-28T01:09:45.361Z,4
2022-08-28T01:10:45.360Z,3
2022-08-28T01:11:45.371Z,5
2022-08-28T01:12:45.390Z,4
2022-08-28T01:13:45.370Z,5
2022-08-28T01:14:45.360Z,4
2022-08-28T01:15:45.412Z,4
2022-08-28T01:16:45.366Z,3
2022-08-28T01:17:45.365Z,3
2022-08-28T01:19:45.372Z,6
2022-08-28T01:20:45.366Z,5
2022-08-28T01:21:45.366Z,5
2022-08-28T01:22:45.360Z,4
2022-08-28T01:23:45.373Z,4
2022-08-28T01:24:45.437Z,4
2022-08-28T01:25:45.356Z,4
2022-08-28T01:26:45.353Z,5
2022-08-28T01:27:45.404Z,5
2022-08-28T01:28:45.364Z,4
2022-08-28T01:29:45.513Z,4
2022-08-28T01:30:45.477Z,4
2022-08-28T01:31:45.382Z,5
2022-08-28T01:32:45.366Z,7
2022-08-28T01:33:45.360Z,4
2022-08-28T01:34:45.356Z,3
2022-08-28T01:35:45.371Z,4
2022-08-28T01:36:45.364Z,4
2022-08-28T01:37:45.378Z,6
2022-08-28T01:38:45.369Z,3
2022-08-28T01:39:45.373Z,5
2022-08-28T01:40:45.365Z,5
2022-08-28T01:41:45.381Z,4
2022-08-28T01:42:45.396Z,4
2022-08-28T01:43:45.387Z,4
2022-08-28T01:44:45.378Z,5
2022-08-28T01:45:45.374Z,4
2022-08-28T01:46:45.563Z,5
2022-08-28T01:47:45.374Z,5
2022-08-28T01:48:45.364Z,3
2022-08-28T01:49:45.369Z,4
2022-08-28T01:50:45.372Z,4
2022-08-28T01:51:45.358Z,4
2022-08-28T01:52:45.384Z,3
2022-08-28T01:53:46.663Z,5
2022-08-28T01:54:45.362Z,4
2022-08-28T01:55:45.380Z,3
2022-08-28T01:56:45.369Z,3
2022-08-28T01:57:45.409Z,3
2022-08-28T01:58:45.415Z,5
2022-08-28T01:59:45.372Z,4
2022-08-28T02:00:45.373Z,5
2022-08-28T02:01:45.462Z,5
2022-08-28T02:02:45.361Z,4
2022-08-28T02:03:45.449Z,3
2022-08-28T02:04:48.242Z,5
2022-08-28T02:05:45.374Z,4
2022-08-28T02:06:45.380Z,4
2022-08-28T02:07:45.377Z,5
2022-08-28T02:08:45.675Z,7
2022-08-28T02:09:45.366Z,3
2022-08-28T02:10:45.427Z,3
2022-08-28T02:11:46.633Z,3
2022-08-28T02:12:45.388Z,5
2022-08-28T02:13:45.381Z,4
2022-08-28T02:14:45.387Z,5
2022-08-28T02:15:45.416Z,5
2022-08-28T02:16:45.365Z,4
2022-08-28T02:17:45.391Z,3
2022-08-28T02:18:45.403Z,4
2022-08-28T02:19:45.372Z,2
2022-08-28T02:20:45.398Z,5
2022-08-28T02:21:45.391Z,4
2022-08-28T02:22:45.380Z,4
2022-08-28T02:23:45.380Z,4
2022-08-28T02:24:45.397Z,6
2022-08-28T02:25:45.381Z,4
2022-08-28T02:26:45.381Z,4
2022-08-28T02:27:45.475Z,5
2022-08-28T02:28:45.378Z,6
2022-08-28T02:29:45.380Z,4
2022-08-28T02:30:45.458Z,4
2022-08-28T02:31:45.390Z,5
2022-08-28T02:32:45.385Z,3
2022-08-28T02:33:45.381Z,6
2022-08-28T02:34:45.378Z,2
2022-08-28T02:35:45.386Z,4
2022-08-28T02:36:45.407Z,5
2022-08-28T02:37:45.460Z,5
2022-08-28T02:38:45.416Z,3
2022-08-28T02:39:45.394Z,4
2022-08-28T02:40:45.404Z,6
2022-08-28T02:41:45.378Z,3
2022-08-28T02:42:45.509Z,4
2022-08-28T02:43:45.396Z,6
2022-08-28T02:44:45.395Z,4
2022-08-28T02:45:45.474Z,5
2022-08-28T02:46:45.392Z,5
2022-08-28T02:47:45.396Z,6
2022-08-28T02:48:45.393Z,5
2022-08-28T02:49:45.392Z,4
2022-08-28T02:50:45.393Z,5
2022-08-28T02:51:45.393Z,5
2022-08-28T02:52:45.404Z,4
2022-08-28T02:53:45.398Z,5
2022-08-28T02:54:45.391Z,4
2022-08-28T02:55:45.408Z,5
2022-08-28T02:56:45.407Z,5
2022-08-28T02:57:45.421Z,6
2022-08-28T02:58:45.387Z,5
2022-08-28T02:59:45.395Z,4
2022-08-28T03:00:45.393Z,4
2022-08-28T03:01:45.563Z,6
2022-08-28T03:02:45.531Z,4
2022-08-28T03:03:45.406Z,4
2022-08-28T03:04:45.396Z,3
2022-08-28T03:05:45.399Z,4
2022-08-28T03:06:45.399Z,5
2022-08-28T03:07:45.407Z,3
2022-08-28T03:08:45.400Z,3
2022-08-28T03:09:45.390Z,5
2022-08-28T03:10:45.398Z,4
2022-08-28T03:11:45.403Z,4
2022-08-28T03:12:45.426Z,3
2022-08-28T03:13:45.440Z,3
2022-08-28T03:14:45.404Z,4
2022-08-28T03:15:45.388Z,4
2022-08-28T03:16:45.417Z,5
2022-08-28T03:17:45.398Z,4
2022-08-28T03:18:45.443Z,4
2022-08-28T03:19:45.416Z,4
2022-08-28T03:20:45.405Z,4
2022-08-28T03:21:45.396Z,5
2022-08-28T03:22:45.416Z,4
2022-08-28T03:23:45.398Z,4
2022-08-28T03:24:45.395Z,5
2022-08-28T03:25:45.407Z,4
2022-08-28T03:26:45.426Z,5
2022-08-28T03:27:45.422Z,3
2022-08-28T03:28:45.396Z,4
2022-08-28T03:29:45.402Z,4
2022-08-28T03:30:45.522Z,4
2022-08-28T03:31:45.425Z,4
2022-08-28T03:32:45.401Z,4
2022-08-28T03:33:45.405Z,4
2022-08-28T03:34:45.400Z,6
2022-08-28T03:35:45.385Z,2
2022-08-28T03:36:45.398Z,6
2022-08-28T03:37:45.411Z,4
2022-08-28T03:38:45.414Z,5
2022-08-28T03:39:45.409Z,4
2022-08-28T03:40:45.401Z,5
2022-08-28T03:41:45.428Z,8
2022-08-28T03:42:53.288Z,5
2022-08-28T03:43:45.429Z,6
2022-08-28T03:44:45.457Z,3
2022-08-28T03:45:45.494Z,5
2022-08-28T03:46:45.422Z,4
2022-08-28T03:47:45.390Z,5
2022-08-28T03:48:45.409Z,4
2022-08-28T03:49:45.440Z,4
2022-08-28T03:50:45.401Z,4
2022-08-28T03:51:45.413Z,3
2022-08-28T03:52:45.408Z,4
2022-08-28T03:53:45.440Z,4
2022-08-28T03:54:45.416Z,6
2022-08-28T03:55:45.402Z,3
2022-08-28T03:56:45.423Z,4
2022-08-28T03:57:45.402Z,6
2022-08-28T03:58:45.414Z,5
2022-08-28T03:59:45.402Z,5
2022-08-28T04:00:45.433Z,4
2022-08-28T04:01:45.473Z,4
2022-08-28T04:02:45.416Z,4
2022-08-28T04:03:45.558Z,4
2022-08-28T04:04:45.407Z,7
2022-08-28T04:05:45.410Z,4
2022-08-28T04:06:45.430Z,4
2022-08-28T04:07:45.426Z,7
2022-08-28T04:08:45.417Z,4
2022-08-28T04:09:45.429Z,5
2022-08-28T04:10:45.402Z,6
2022-08-28T04:11:45.473Z,4
2022-08-28T04:12:45.425Z,5
2022-08-28T04:13:45.398Z,4
2022-08-28T04:14:46.414Z,6
2022-08-28T04:15:45.423Z,5
2022-08-28T04:16:45.477Z,4
2022-08-28T04:17:45.415Z,5
2022-08-28T04:18:45.419Z,4
2022-08-28T04:19:45.419Z,5
2022-08-28T04:20:46.497Z,4
2022-08-28T04:21:45.408Z,4
2022-08-28T04:22:45.417Z,5
2022-08-28T04:23:45.473Z,4
2022-08-28T04:24:45.412Z,6
2022-08-28T04:25:45.411Z,6
2022-08-28T04:26:45.430Z,4
2022-08-28T04:27:45.421Z,7
2022-08-28T04:28:45.430Z,4
2022-08-28T04:29:45.417Z,5
2022-08-28T04:30:45.426Z,5
2022-08-28T04:31:45.491Z,6
2022-08-28T04:32:45.415Z,4
2022-08-28T04:33:45.418Z,5
2022-08-28T04:34:45.434Z,5
2022-08-28T04:35:45.432Z,5
2022-08-28T04:36:45.417Z,4
2022-08-28T04:37:45.420Z,5
2022-08-28T04:38:45.440Z,4
2022-08-28T04:39:45.407Z,5
2022-08-28T04:40:45.440Z,4
2022-08-28T04:41:45.444Z,4
2022-08-28T04:42:45.470Z,6
2022-08-28T04:43:45.438Z,4
2022-08-28T04:44:45.425Z,5
2022-08-28T04:45:45.492Z,5
2022-08-28T04:46:45.408Z,6
2022-08-28T04:47:45.428Z,5
2022-08-28T04:48:45.434Z,6
2022-08-28T04:49:45.423Z,5
2022-08-28T04:50:45.439Z,6
2022-08-28T04:51:47.058Z,5
2022-08-28T04:52:45.420Z,5
2022-08-28T04:53:45.420Z,6
2022-08-28T04:54:45.410Z,5
2022-08-28T04:55:53.515Z,7
2022-08-28T04:56:45.411Z,5
2022-08-28T04:57:45.420Z,4
2022-08-28T04:58:45.430Z,5
2022-08-28T04:59:45.448Z,6
2022-08-28T05:00:45.471Z,6
2022-08-28T05:01:45.441Z,5
2022-08-28T05:02:45.433Z,4
2022-08-28T05:03:45.415Z,4
2022-08-28T05:04:45.493Z,6
2022-08-28T05:05:45.428Z,4
2022-08-28T05:06:45.451Z,5
2022-08-28T05:07:45.429Z,5
2022-08-28T05:08:45.441Z,6
2022-08-28T05:09:45.450Z,5
2022-08-28T05:10:45.424Z,8
2022-08-28T05:11:45.429Z,4
2022-08-28T05:12:45.445Z,6
2022-08-28T05:13:45.452Z,5
2022-08-28T05:14:45.411Z,6
2022-08-28T05:15:45.424Z,7
2022-08-28T05:16:45.545Z,5
2022-08-28T05:17:45.430Z,7
2022-08-28T05:18:45.430Z,5
2022-08-28T05:19:45.440Z,7
2022-08-28T05:20:45.432Z,6
2022-08-28T05:21:45.435Z,5
2022-08-28T05:22:45.420Z,6
2022-08-28T05:23:45.449Z,7
2022-08-28T05:24:45.447Z,7
2022-08-28T05:25:45.425Z,5
2022-08-28T05:26:47.994Z,6
2022-08-28T05:27:45.424Z,6
2022-08-28T05:28:45.469Z,5
2022-08-28T05:29:45.436Z,6
2022-08-28T05:30:45.423Z,6
2022-08-28T05:31:46.244Z,7
2022-08-28T05:32:45.436Z,6
2022-08-28T05:33:45.436Z,7
2022-08-28T05:34:45.438Z,6
2022-08-28T05:35:45.427Z,7
2022-08-28T05:36:45.428Z,7
2022-08-28T05:37:45.437Z,4
2022-08-28T05:38:45.435Z,7
2022-08-28T05:39:45.440Z,8
2022-08-28T05:40:45.508Z,5
2022-08-28T05:41:45.432Z,7
2022-08-28T05:42:45.494Z,5
2022-08-28T05:43:45.468Z,7
2022-08-28T05:44:45.439Z,6
2022-08-28T05:45:45.606Z,7
2022-08-28T05:46:45.446Z,8
2022-08-28T05:47:45.494Z,9
2022-08-28T05:48:45.427Z,7
2022-08-28T05:49:45.440Z,8
2022-08-28T05:50:47.663Z,6
2022-08-28T05:51:45.451Z,7
2022-08-28T05:52:45.432Z,9
2022-08-28T05:53:45.423Z,7
2022-08-28T05:54:45.439Z,9
2022-08-28T05:55:45.444Z,6
2022-08-28T05:56:45.443Z,6
2022-08-28T05:57:45.441Z,9
2022-08-28T05:58:45.450Z,5
2022-08-28T05:59:45.507Z,6
2022-08-28T06:00:45.433Z,6
2022-08-28T06:01:45.476Z,8
2022-08-28T06:02:45.466Z,9
2022-08-28T06:03:45.488Z,7
2022-08-28T06:04:45.434Z,12
2022-08-28T06:05:45.448Z,10
2022-08-28T06:06:45.449Z,6
2022-08-28T06:07:45.448Z,7
2022-08-28T06:08:58.560Z,9
2022-08-28T06:09:45.441Z,9
2022-08-28T06:10:45.911Z,8
2022-08-28T06:11:46.457Z,7
2022-08-28T06:12:45.439Z,7
2022-08-28T06:13:45.450Z,9
2022-08-28T06:14:45.450Z,7
2022-08-28T06:15:45.507Z,7
2022-08-28T06:16:45.507Z,6
2022-08-28T06:17:45.442Z,7
2022-08-28T06:18:45.454Z,9
2022-08-28T06:19:45.447Z,7
2022-08-28T06:20:45.444Z,9
2022-08-28T06:21:45.449Z,7
2022-08-28T06:22:45.457Z,8
2022-08-28T06:23:45.438Z,9
2022-08-28T06:24:45.453Z,8
2022-08-28T06:25:45.459Z,7
2022-08-28T06:26:45.444Z,8
2022-08-28T06:27:45.447Z,10
2022-08-28T06:28:45.468Z,7
2022-08-28T06:29:45.436Z,8
2022-08-28T06:30:57.476Z,9
2022-08-28T06:31:45.472Z,12
2022-08-28T06:32:45.457Z,8
2022-08-28T06:33:45.505Z,8
2022-08-28T06:34:45.441Z,11
2022-08-28T06:35:45.443Z,10
2022-08-28T06:36:45.446Z,9
2022-08-28T06:37:45.453Z,9
2022-08-28T06:38:45.442Z,9
2022-08-28T06:39:45.454Z,10
2022-08-28T06:40:45.474Z,8
2022-08-28T06:41:45.445Z,8
2022-08-28T06:42:45.432Z,11
2022-08-28T06:43:45.461Z,10
2022-08-28T06:44:45.442Z,9
2022-08-28T06:45:45.555Z,10
2022-08-28T06:46:45.441Z,9
2022-08-28T06:47:45.440Z,10
2022-08-28T06:49:45.438Z,9
2022-08-28T06:50:45.528Z,10
2022-08-28T06:51:45.449Z,7
2022-08-28T06:52:45.454Z,8
2022-08-28T06:53:45.463Z,9
2022-08-28T06:54:55.599Z,8
2022-08-28T06:55:45.817Z,9
2022-08-28T06:56:45.872Z,11
2022-08-28T06:57:45.455Z,9
2022-08-28T06:58:50.335Z,10
2022-08-28T06:59:45.443Z,8
2022-08-28T07:00:45.447Z,11
2022-08-28T07:01:45.625Z,7
2022-08-28T07:02:45.481Z,9
2022-08-28T07:03:45.454Z,10
2022-08-28T07:04:45.455Z,8
2022-08-28T07:05:45.445Z,7
2022-08-28T07:06:46.796Z,9
2022-08-28T07:07:45.450Z,8
2022-08-28T07:08:45.463Z,11
2022-08-28T07:09:45.440Z,9
2022-08-28T07:10:45.445Z,8
2022-08-28T07:11:45.478Z,10
2022-08-28T07:12:45.446Z,10
2022-08-28T07:13:45.496Z,9
2022-08-28T07:14:45.459Z,10
2022-08-28T07:15:45.572Z,8
2022-08-28T07:16:45.455Z,8
2022-08-28T07:17:45.457Z,10
2022-08-28T07:18:45.446Z,10
2022-08-28T07:19:45.467Z,8
2022-08-28T07:20:45.462Z,8
2022-08-28T07:21:45.457Z,8
2022-08-28T07:22:45.483Z,9
2022-08-28T07:23:45.450Z,7
2022-08-28T07:24:45.456Z,11
2022-08-28T07:25:45.438Z,8
2022-08-28T07:26:45.470Z,8
2022-08-28T07:27:45.466Z,9
2022-08-28T07:28:45.629Z,9
2022-08-28T07:29:45.448Z,9
2022-08-28T07:30:45.481Z,8
2022-08-28T07:31:45.517Z,11
2022-08-28T07:32:45.461Z,8
2022-08-28T07:33:45.441Z,9
2022-08-28T07:34:45.459Z,10
2022-08-28T07:35:45.507Z,8
2022-08-28T07:36:45.573Z,8
2022-08-28T07:37:45.469Z,9
2022-08-28T07:38:45.463Z,9
2022-08-28T07:39:45.893Z,9
2022-08-28T07:40:45.466Z,9
2022-08-28T07:41:45.476Z,8
2022-08-28T07:42:45.462Z,11
2022-08-28T07:43:45.458Z,9
2022-08-28T07:44:45.449Z,8
2022-08-28T07:45:45.559Z,9
2022-08-28T07:46:45.489Z,9
2022-08-28T07:47:45.456Z,8
2022-08-28T07:48:45.446Z,7
2022-08-28T07:49:45.464Z,9
2022-08-28T07:50:45.478Z,8
2022-08-28T07:51:46.925Z,11
2022-08-28T07:52:45.472Z,9
2022-08-28T07:53:45.453Z,10
2022-08-28T07:54:45.476Z,8
2022-08-28T07:55:45.534Z,8
2022-08-28T07:56:45.476Z,7
2022-08-28T07:57:45.462Z,8
2022-08-28T07:58:45.487Z,7
2022-08-28T07:59:45.461Z,8
2022-08-28T08:00:45.526Z,9
2022-08-28T08:01:45.571Z,10
2022-08-28T08:02:45.464Z,8
2022-08-28T08:03:45.524Z,10
2022-08-28T08:04:45.457Z,10
2022-08-28T08:05:45.473Z,8
2022-08-28T08:06:45.499Z,8
2022-08-28T08:07:46.054Z,7
2022-08-28T08:08:45.463Z,11
2022-08-28T08:09:45.472Z,8
2022-08-28T08:10:45.474Z,7
2022-08-28T08:11:45.489Z,6
2022-08-28T08:12:45.502Z,9
2022-08-28T08:13:45.483Z,8
2022-08-28T08:14:45.471Z,9
2022-08-28T08:15:45.492Z,9
2022-08-28T08:16:45.479Z,8
2022-08-28T08:18:45.471Z,9
2022-08-28T08:19:45.518Z,9
2022-08-28T08:20:45.479Z,8
2022-08-28T08:21:45.509Z,8
2022-08-28T08:22:45.487Z,7
2022-08-28T08:23:45.477Z,8
2022-08-28T08:24:45.465Z,10
2022-08-28T08:25:45.492Z,7
2022-08-28T08:26:45.484Z,9
2022-08-28T08:27:45.482Z,9
2022-08-28T08:28:45.479Z,9
2022-08-28T08:29:45.475Z,9
2022-08-28T08:30:45.572Z,8
2022-08-28T08:31:45.488Z,10
2022-08-28T08:32:45.476Z,7
2022-08-28T08:33:45.473Z,9
2022-08-28T08:34:45.519Z,7
2022-08-28T08:35:45.482Z,8
2022-08-28T08:36:45.481Z,9
2022-08-28T08:37:45.481Z,7
2022-08-28T08:38:45.479Z,9
2022-08-28T08:39:51.917Z,11
2022-08-28T08:40:45.566Z,10
2022-08-28T08:41:45.483Z,8
2022-08-28T08:42:45.485Z,7
2022-08-28T08:43:45.474Z,9
2022-08-28T08:44:45.474Z,10
2022-08-28T08:45:45.485Z,11
2022-08-28T08:46:45.583Z,10
2022-08-28T08:47:45.494Z,8
2022-08-28T08:48:45.526Z,9
2022-08-28T08:49:45.460Z,8
2022-08-28T08:50:45.477Z,8
2022-08-28T08:51:45.536Z,8
2022-08-28T08:52:45.476Z,8
2022-08-28T08:53:45.466Z,9
2022-08-28T08:54:45.485Z,7
2022-08-28T08:55:45.484Z,12
2022-08-28T08:56:45.491Z,10
2022-08-28T08:57:46.132Z,7
2022-08-28T08:58:45.498Z,8
2022-08-28T08:59:45.477Z,10
2022-08-28T09:00:45.479Z,7
2022-08-28T09:01:45.588Z,8
2022-08-28T09:02:45.479Z,8
2022-08-28T09:03:45.531Z,7
2022-08-28T09:04:45.469Z,7
2022-08-28T09:05:45.484Z,8
2022-08-28T09:06:45.502Z,7
2022-08-28T09:07:46.258Z,9
2022-08-28T09:08:45.476Z,7
2022-08-28T09:09:45.475Z,7
2022-08-28T09:10:45.529Z,7
2022-08-28T09:11:45.518Z,7
2022-08-28T09:12:45.482Z,11
2022-08-28T09:13:45.507Z,10
2022-08-28T09:14:45.506Z,9
2022-08-28T09:15:49.948Z,7
2022-08-28T09:16:45.510Z,6
2022-08-28T09:17:45.486Z,7
2022-08-28T09:18:45.506Z,8
2022-08-28T09:19:45.484Z,8
2022-08-28T09:20:45.476Z,8
2022-08-28T09:21:45.505Z,8
2022-08-28T09:22:45.479Z,6
2022-08-28T09:23:45.488Z,7
2022-08-28T09:24:45.495Z,9
2022-08-28T09:25:45.489Z,7
2022-08-28T09:26:45.502Z,8
2022-08-28T09:27:45.476Z,9
2022-08-28T09:28:45.512Z,7
2022-08-28T09:29:45.494Z,8
2022-08-28T09:30:45.506Z,8
2022-08-28T09:31:45.499Z,6
2022-08-28T09:32:45.554Z,5
2022-08-28T09:33:45.506Z,8
2022-08-28T09:34:45.481Z,6
2022-08-28T09:35:45.483Z,6
2022-08-28T09:36:45.503Z,6
2022-08-28T09:37:45.495Z,6
2022-08-28T09:38:45.483Z,5
2022-08-28T09:40:45.485Z,7
2022-08-28T09:41:45.508Z,5
2022-08-28T09:42:45.492Z,8
2022-08-28T09:43:45.513Z,8
2022-08-28T09:44:45.505Z,8
2022-08-28T09:45:45.480Z,7
2022-08-28T09:46:45.635Z,6
2022-08-28T09:47:46.190Z,7
2022-08-28T09:48:45.487Z,7
2022-08-28T09:49:45.484Z,8
2022-08-28T09:50:45.510Z,7
2022-08-28T09:51:45.491Z,6
2022-08-28T09:52:45.493Z,7
2022-08-28T09:53:45.496Z,7
2022-08-28T09:54:45.491Z,9
2022-08-28T09:55:45.495Z,6
2022-08-28T09:56:45.557Z,6
2022-08-28T09:57:45.552Z,6
2022-08-28T09:58:45.506Z,8
2022-08-28T09:59:45.514Z,7
2022-08-28T10:00:45.769Z,6
2022-08-28T10:01:45.729Z,5
2022-08-28T10:02:45.612Z,8
2022-08-28T10:03:45.493Z,6
2022-08-28T10:04:45.605Z,6
2022-08-28T10:05:45.511Z,6
2022-08-28T10:06:45.523Z,6
2022-08-28T10:07:45.505Z,5
2022-08-28T10:08:45.530Z,7
2022-08-28T10:09:47.766Z,7
2022-08-28T10:10:45.494Z,7
2022-08-28T10:11:45.531Z,5
2022-08-28T10:12:45.505Z,9
2022-08-28T10:13:45.537Z,6
2022-08-28T10:15:45.563Z,7
2022-08-28T10:16:45.516Z,5
2022-08-28T10:17:45.520Z,5
2022-08-28T10:18:45.607Z,7
2022-08-28T10:19:45.518Z,7
2022-08-28T10:20:45.485Z,5
2022-08-28T10:21:45.525Z,6
2022-08-28T10:22:45.507Z,6
2022-08-28T10:23:45.526Z,7
2022-08-28T10:24:45.510Z,7
2022-08-28T10:25:45.507Z,7
2022-08-28T10:26:45.548Z,6
2022-08-28T10:27:45.508Z,4
2022-08-28T10:28:45.505Z,5
2022-08-28T10:29:45.505Z,7
2022-08-28T10:30:45.568Z,6
2022-08-28T10:31:45.498Z,6
2022-08-28T10:32:45.496Z,7
2022-08-28T10:33:45.506Z,5
2022-08-28T10:34:45.525Z,6
2022-08-28T10:35:45.554Z,7
2022-08-28T10:36:45.512Z,5
2022-08-28T10:37:45.509Z,7
2022-08-28T10:38:50.814Z,6
2022-08-28T10:39:45.495Z,6
2022-08-28T10:40:45.510Z,6
2022-08-28T10:41:45.528Z,7
2022-08-28T10:42:45.521Z,8
2022-08-28T10:43:45.526Z,5
2022-08-28T10:44:45.539Z,5
2022-08-28T10:45:45.617Z,5
2022-08-28T10:46:45.580Z,7
2022-08-28T10:47:45.520Z,8
2022-08-28T10:48:45.525Z,6
2022-08-28T10:49:45.523Z,5
2022-08-28T10:50:45.499Z,7
2022-08-28T10:51:45.536Z,6
2022-08-28T10:52:45.528Z,6
2022-08-28T10:53:45.524Z,7
2022-08-28T10:54:45.514Z,5
2022-08-28T10:55:45.516Z,7
2022-08-28T10:56:45.532Z,7
2022-08-28T10:57:45.510Z,9
2022-08-28T10:58:45.499Z,7
2022-08-28T10:59:45.525Z,7
2022-08-28T11:00:45.524Z,6
2022-08-28T11:01:45.609Z,4
2022-08-28T11:02:45.554Z,5
2022-08-28T11:03:45.519Z,8
2022-08-28T11:04:45.518Z,5
2022-08-28T11:05:53.456Z,7
2022-08-28T11:06:45.528Z,4
2022-08-28T11:07:45.515Z,5
2022-08-28T11:08:45.509Z,6
2022-08-28T11:09:45.584Z,4
2022-08-28T11:10:45.523Z,5
2022-08-28T11:11:45.535Z,5
2022-08-28T11:12:45.526Z,5
2022-08-28T11:13:45.518Z,5
2022-08-28T11:14:48.446Z,6
2022-08-28T11:15:45.531Z,6
2022-08-28T11:16:45.653Z,7
2022-08-28T11:17:45.515Z,7
2022-08-28T11:18:45.527Z,5
2022-08-28T11:19:48.042Z,6
2022-08-28T11:20:45.528Z,5
2022-08-28T11:21:45.538Z,5
2022-08-28T11:22:45.527Z,6
2022-08-28T11:23:45.511Z,6
2022-08-28T11:24:45.515Z,5
2022-08-28T11:25:45.521Z,4
2022-08-28T11:26:45.578Z,5
2022-08-28T11:27:45.552Z,5
2022-08-28T11:28:45.535Z,6
2022-08-28T11:29:45.528Z,4
2022-08-28T11:30:45.568Z,5
2022-08-28T11:31:45.539Z,6
2022-08-28T11:32:47.159Z,6
2022-08-28T11:33:45.567Z,4
2022-08-28T11:34:45.525Z,5
2022-08-28T11:35:45.517Z,5
2022-08-28T11:36:45.532Z,4
2022-08-28T11:37:45.539Z,4
2022-08-28T11:38:45.602Z,6
2022-08-28T11:39:45.524Z,8
2022-08-28T11:40:45.525Z,5
2022-08-28T11:41:45.565Z,4
2022-08-28T11:42:45.515Z,6
2022-08-28T11:43:45.539Z,5
2022-08-28T11:44:45.551Z,6
2022-08-28T11:45:45.765Z,4
2022-08-28T11:46:45.535Z,5
2022-08-28T11:47:45.524Z,7
2022-08-28T11:48:45.538Z,5
2022-08-28T11:49:45.522Z,5
2022-08-28T11:50:45.525Z,10
2022-08-28T11:51:45.544Z,5
2022-08-28T11:52:45.608Z,6
2022-08-28T11:53:45.515Z,3
2022-08-28T11:54:45.532Z,5
2022-08-28T11:55:45.546Z,5
2022-08-28T11:56:45.560Z,5
2022-08-28T11:57:45.532Z,5
2022-08-28T11:58:45.548Z,3
2022-08-28T11:59:45.560Z,4
2022-08-28T12:00:45.529Z,5
2022-08-28T12:01:45.546Z,6
2022-08-28T12:02:45.581Z,5
2022-08-28T12:03:45.550Z,3
2022-08-28T12:04:45.673Z,6
2022-08-28T12:05:45.642Z,4
2022-08-28T12:06:45.606Z,4
2022-08-28T12:07:45.537Z,4
2022-08-28T12:08:45.542Z,3
2022-08-28T12:09:45.529Z,3
2022-08-28T12:10:45.528Z,4
2022-08-28T12:11:45.546Z,4
2022-08-28T12:12:46.151Z,4
2022-08-28T12:13:45.537Z,5
2022-08-28T12:14:45.588Z,4
2022-08-28T12:15:45.583Z,4
2022-08-28T12:16:45.551Z,4
2022-08-28T12:17:45.529Z,6
2022-08-28T12:18:45.589Z,5
2022-08-28T12:19:55.322Z,4
2022-08-28T12:20:45.534Z,5
2022-08-28T12:21:45.559Z,3
2022-08-28T12:22:45.548Z,4
2022-08-28T12:23:45.540Z,5
2022-08-28T12:24:45.558Z,4
2022-08-28T12:25:46.216Z,5
2022-08-28T12:26:45.554Z,4
2022-08-28T12:27:45.563Z,7
2022-08-28T12:28:45.530Z,4
2022-08-28T12:29:45.552Z,4
2022-08-28T12:30:45.610Z,2
2022-08-28T12:31:45.577Z,5
2022-08-28T12:32:45.537Z,3
2022-08-28T12:33:45.553Z,5
2022-08-28T12:34:45.564Z,5
2022-08-28T12:35:45.553Z,5
2022-08-28T12:36:48.976Z,5
2022-08-28T12:37:52.278Z,6
2022-08-28T12:38:45.555Z,5
2022-08-28T12:39:45.541Z,5
2022-08-28T12:40:45.606Z,5
2022-08-28T12:41:45.592Z,7
2022-08-28T12:42:45.588Z,6
2022-08-28T12:43:46.746Z,4
2022-08-28T12:44:45.582Z,4
2022-08-28T12:45:45.605Z,5
2022-08-28T12:46:45.577Z,5
2022-08-28T12:47:45.549Z,4
2022-08-28T12:48:45.562Z,5
2022-08-28T12:49:45.548Z,6
2022-08-28T12:50:45.569Z,4
2022-08-28T12:51:45.561Z,5
2022-08-28T12:52:45.576Z,6
2022-08-28T12:53:45.533Z,4
2022-08-28T12:54:45.553Z,4
2022-08-28T12:55:45.537Z,5
2022-08-28T12:56:45.538Z,4
2022-08-28T12:57:45.577Z,5
2022-08-28T12:58:45.559Z,6
2022-08-28T12:59:45.555Z,6
2022-08-28T13:00:45.566Z,6
2022-08-28T13:01:45.630Z,5
2022-08-28T13:02:50.546Z,5
2022-08-28T13:03:45.564Z,5
2022-08-28T13:04:45.610Z,5
2022-08-28T13:05:45.547Z,5
2022-08-28T13:06:45.547Z,5
2022-08-28T13:07:45.571Z,4
2022-08-28T13:08:45.560Z,3
2022-08-28T13:09:45.621Z,4
2022-08-28T13:10:45.554Z,5
2022-08-28T13:11:45.552Z,3
2022-08-28T13:12:55.934Z,4
2022-08-28T13:13:45.564Z,6
2022-08-28T13:14:45.591Z,5
2022-08-28T13:15:45.550Z,4
2022-08-28T13:16:45.701Z,3
2022-08-28T13:17:45.570Z,5
2022-08-28T13:18:45.554Z,3
2022-08-28T13:19:45.560Z,4
2022-08-28T13:20:45.592Z,4
2022-08-28T13:21:45.576Z,5
2022-08-28T13:22:50.921Z,4
2022-08-28T13:23:45.574Z,3
2022-08-28T13:24:45.568Z,4
2022-08-28T13:25:45.566Z,4
2022-08-28T13:26:45.557Z,5
2022-08-28T13:27:45.613Z,3
2022-08-28T13:28:45.571Z,3
2022-08-28T13:29:45.559Z,5
2022-08-28T13:30:45.622Z,5
2022-08-28T13:31:45.559Z,4
2022-08-28T13:32:45.567Z,4
2022-08-28T13:33:45.561Z,3
2022-08-28T13:34:48.173Z,4
2022-08-28T13:35:45.562Z,5
2022-08-28T13:36:45.557Z,4
2022-08-28T13:37:45.570Z,3
2022-08-28T13:38:45.605Z,5
2022-08-28T13:39:45.565Z,4
2022-08-28T13:41:01.122Z,3
2022-08-28T13:41:45.557Z,3
2022-08-28T13:42:45.594Z,3
2022-08-28T13:43:45.558Z,4
2022-08-28T13:44:45.584Z,3
2022-08-28T13:45:45.672Z,6
2022-08-28T13:46:45.578Z,5
2022-08-28T13:47:45.561Z,3
2022-08-28T13:48:45.568Z,5
2022-08-28T13:49:45.582Z,4
2022-08-28T13:50:45.691Z,4
2022-08-28T13:51:45.606Z,4
2022-08-28T13:52:45.585Z,3
2022-08-28T13:53:45.568Z,5
2022-08-28T13:54:45.727Z,4
2022-08-28T13:55:45.580Z,4
2022-08-28T13:56:45.558Z,4
2022-08-28T13:57:45.614Z,3
2022-08-28T13:58:45.567Z,4
2022-08-28T13:59:45.577Z,5
2022-08-28T14:00:45.612Z,4
2022-08-28T14:01:45.649Z,3
2022-08-28T14:02:45.763Z,3
2022-08-28T14:03:45.564Z,3
2022-08-28T14:04:45.586Z,2
2022-08-28T14:05:45.570Z,4
2022-08-28T14:06:45.572Z,6
2022-08-28T14:07:45.602Z,3
2022-08-28T14:08:45.590Z,4
2022-08-28T14:09:45.582Z,2
2022-08-28T14:10:45.566Z,3
2022-08-28T14:11:45.563Z,2
2022-08-28T14:12:45.606Z,3
2022-08-28T14:13:46.913Z,4
2022-08-28T14:14:45.566Z,6
2022-08-28T14:15:45.580Z,5
2022-08-28T14:16:45.848Z,3
2022-08-28T14:17:45.596Z,3
2022-08-28T14:18:45.597Z,3
2022-08-28T14:19:45.602Z,3
2022-08-28T14:20:45.563Z,4
2022-08-28T14:21:45.566Z,5
2022-08-28T14:22:45.594Z,3
2022-08-28T14:23:45.602Z,3
2022-08-28T14:24:45.589Z,3
2022-08-28T14:25:45.588Z,5
2022-08-28T14:26:45.601Z,7
2022-08-28T14:27:45.649Z,3
2022-08-28T14:28:45.582Z,5
2022-08-28T14:29:45.608Z,7
2022-08-28T14:30:45.581Z,3
2022-08-28T14:31:45.726Z,3
2022-08-28T14:32:45.593Z,3
2022-08-28T14:33:45.881Z,4
2022-08-28T14:34:45.604Z,3
2022-08-28T14:35:45.579Z,4
2022-08-28T14:36:45.602Z,6
2022-08-28T14:37:45.592Z,2
2022-08-28T14:38:45.589Z,4
2022-08-28T14:39:45.602Z,3
2022-08-28T14:40:45.581Z,3
2022-08-28T14:41:45.576Z,3
2022-08-28T14:42:45.613Z,5
2022-08-28T14:43:45.668Z,4
2022-08-28T14:44:45.583Z,3
2022-08-28T14:45:45.714Z,3
2022-08-28T14:46:45.681Z,4
2022-08-28T14:47:45.750Z,3
2022-08-28T14:48:45.586Z,3
2022-08-28T14:49:45.663Z,4
2022-08-28T14:50:45.582Z,3
2022-08-28T14:51:45.638Z,5